Time;durP1;ratioP1;P1;durP2;ratioP2;P2;SDS_P1;SDS_P2;PMS_P1;PMS_P2;Temp;Humidity;BMP_temperature;BMP_pressure;BME280_temperature;BME280_humidity;BME280_pressure;Samples;Min_cycle;Max_cycle;Signal;HPM_P1;HPM_P2
2021/01/22 00:01:13;;;;;;;;;;;6.70;99.90;;;;;;5134888;27;20010;-85
2021/01/22 00:03:46;;;;;;;;;;;6.40;99.90;;;;;;5134772;27;20002;-86
2021/01/22 00:06:16;;;;;;;;;;;6.00;99.90;;;;;;5130638;27;19957;-85
2021/01/22 00:08:51;;;;;;;;;;;5.70;99.90;;;;;;5131881;27;19950;-85
2021/01/22 00:11:22;;;;;;;;;;;5.60;99.90;;;;;;5135669;27;19915;-85
2021/01/22 00:13:56;;;;;;;;;;;5.50;99.90;;;;;;5134925;27;19941;-85
2021/01/22 00:16:38;;;;;;;;;;;5.40;99.90;;;;;;5131658;27;19919;-85
2021/01/22 00:19:09;;;;;;;;;;;5.20;99.90;;;;;;5134892;27;19907;-85
2021/01/22 00:21:37;;;;;;;;;;;5.10;99.90;;;;;;5114342;27;19919;-85
2021/01/22 00:24:08;;;;;;;;;;;5.00;99.90;;;;;;5136332;27;19916;-85
2021/01/22 00:26:36;;;;;;;;;;;5.00;99.90;;;;;;5135946;27;19907;-85
2021/01/22 00:29:07;;;;;;;;;;;4.90;99.90;;;;;;5113138;27;19907;-85
2021/01/22 00:31:36;;;;;;;;;;;4.80;99.90;;;;;;5135775;27;19914;-85
2021/01/22 00:34:05;;;;;;;;;;;4.80;99.90;;;;;;5135109;27;19915;-85
2021/01/22 00:36:36;;;;;;;;;;;4.80;99.90;;;;;;5117366;27;19915;-85
2021/01/22 00:39:04;;;;;;;;;;;4.70;99.90;;;;;;5135603;27;20364;-85
2021/01/22 00:41:33;;;;;;;;;;;4.60;99.90;;;;;;5117430;27;20313;-85
2021/01/22 00:44:04;;;;;;;;;;;4.60;99.90;;;;;;5116733;27;19912;-85
2021/01/22 00:46:33;;;;;;;;;;;4.50;99.90;;;;;;5116653;27;19919;-85
2021/01/22 00:49:02;;;;;;;;;;;4.50;99.90;;;;;;5117168;27;19907;-85
2021/01/22 00:51:30;;;;;;;;;;;4.30;99.90;;;;;;5117319;27;19962;-85
2021/01/22 00:54:01;;;;;;;;;;;4.30;99.90;;;;;;5117130;27;20241;-85
2021/01/22 00:56:33;;;;;;;;;;;4.20;99.90;;;;;;5114157;27;19911;-85
2021/01/22 00:59:02;;;;;;;;;;;4.10;99.90;;;;;;5116721;27;19919;-85
2021/01/22 01:01:30;;;;;;;;;;;4.00;99.90;;;;;;5134820;27;19953;-85
2021/01/22 01:03:58;;;;;;;;;;;4.00;99.90;;;;;;5116525;27;19960;-85
2021/01/22 01:06:31;;;;;;;;;;;4.00;99.90;;;;;;5117340;27;19911;-85
2021/01/22 01:09:07;;;;;;;;;;;3.90;99.90;;;;;;5113687;28;19911;-85
2021/01/22 01:11:37;;;;;;;;;;;3.80;99.90;;;;;;5116400;28;19907;-86
2021/01/22 01:14:08;;;;;;;;;;;3.80;99.90;;;;;;5113641;28;19912;-85
2021/01/22 01:16:34;;;;;;;;;;;3.80;99.90;;;;;;5133940;27;19950;-85
2021/01/22 01:19:02;;;;;;;;;;;3.80;99.90;;;;;;5134220;27;19964;-86
2021/01/22 01:21:35;;;;;;;;;;;3.80;99.90;;;;;;5116955;28;19914;-86
2021/01/22 01:24:09;;;;;;;;;;;3.80;99.90;;;;;;5116472;28;19911;-85
2021/01/22 01:26:44;;;;;;;;;;;3.80;99.90;;;;;;5116818;28;19918;-85
2021/01/22 01:29:12;;;;;;;;;;;3.80;99.90;;;;;;5113203;28;19915;-85
2021/01/22 01:31:52;;;;;;;;;;;3.80;99.90;;;;;;5116777;28;19961;-86
2021/01/22 01:34:24;;;;;;;;;;;3.80;99.90;;;;;;5134905;28;20002;-85
2021/01/22 01:37:09;;;;;;;;;;;3.80;99.90;;;;;;5134698;28;20390;-86
2021/01/22 01:39:41;;;;;;;;;;;3.80;99.90;;;;;;5116495;28;19907;-86
2021/01/22 01:42:10;;;;;;;;;;;3.90;99.90;;;;;;5134425;28;19912;-86
2021/01/22 01:44:46;;;;;;;;;;;3.90;99.90;;;;;;5116286;28;19911;-86
2021/01/22 01:47:20;;;;;;;;;;;3.90;99.90;;;;;;5138122;27;19998;-85
2021/01/22 01:50:05;;;;;;;;;;;3.90;99.90;;;;;;5122809;27;19931;-85
2021/01/22 01:52:37;;;;;;;;;;;3.90;99.90;;;;;;5139995;27;19907;-85
2021/01/22 01:55:15;;;;;;;;;;;3.90;99.90;;;;;;5141164;27;19907;-86
2021/01/22 01:57:44;;;;;;;;;;;3.90;99.90;;;;;;5138454;27;19926;-86
2021/01/22 02:00:17;;;;;;;;;;;3.90;99.90;;;;;;5138722;27;20010;-86
2021/01/22 02:02:48;;;;;;;;;;;3.90;99.90;;;;;;5139476;27;20378;-86
2021/01/22 02:05:17;;;;;;;;;;;3.90;99.90;;;;;;5120780;27;19925;-86
2021/01/22 02:07:49;;;;;;;;;;;3.90;99.90;;;;;;5120397;27;19907;-85
2021/01/22 02:10:19;;;;;;;;;;;3.90;99.90;;;;;;5120860;27;20006;-86
2021/01/22 02:12:50;;;;;;;;;;;3.80;99.90;;;;;;5120637;27;19934;-86
2021/01/22 02:15:17;;;;;;;;;;;3.90;99.90;;;;;;5137919;27;19908;-86
2021/01/22 02:17:49;;;;;;;;;;;3.90;99.90;;;;;;5138982;27;19961;-86
2021/01/22 02:20:18;;;;;;;;;;;3.90;99.90;;;;;;5138517;27;20009;-86
2021/01/22 02:22:47;;;;;;;;;;;3.90;99.90;;;;;;5120192;27;19994;-86
2021/01/22 02:25:22;;;;;;;;;;;3.90;99.90;;;;;;5120786;27;19915;-86
2021/01/22 02:27:49;;;;;;;;;;;3.90;99.90;;;;;;5137388;27;19948;-86
2021/01/22 02:30:17;;;;;;;;;;;3.90;99.90;;;;;;5134219;27;19915;-86
2021/01/22 02:32:50;;;;;;;;;;;3.90;99.90;;;;;;5115614;27;20280;-86
2021/01/22 02:35:26;;;;;;;;;;;3.90;99.90;;;;;;5120552;27;20033;-86
2021/01/22 02:37:55;;;;;;;;;;;3.90;99.90;;;;;;5120426;27;19914;-86
2021/01/22 02:40:27;;;;;;;;;;;3.90;99.90;;;;;;5137236;27;19914;-86
2021/01/22 02:43:01;;;;;;;;;;;3.90;99.90;;;;;;5120337;27;19907;-86
2021/01/22 02:45:33;;;;;;;;;;;4.00;99.90;;;;;;5138102;27;19937;-86
2021/01/22 02:48:01;;;;;;;;;;;3.90;99.90;;;;;;5137577;27;19908;-87
2021/01/22 02:50:36;;;;;;;;;;;3.90;99.90;;;;;;5137932;27;19960;-86
2021/01/22 02:53:12;;;;;;;;;;;3.90;99.90;;;;;;5120246;27;19915;-87
2021/01/22 02:55:38;;;;;;;;;;;3.90;99.90;;;;;;5119607;27;20001;-86
2021/01/22 02:58:09;;;;;;;;;;;3.90;99.90;;;;;;5119155;27;19963;-87
2021/01/22 03:01:06;;;;;;;;;;;3.80;99.90;;;;;;5138496;27;19918;-87
2021/01/22 03:03:42;;;;;;;;;;;3.80;99.90;;;;;;5107621;27;19947;-86
2021/01/22 03:06:11;;;;;;;;;;;3.80;99.90;;;;;;5136687;27;19918;-86
2021/01/22 03:08:41;;;;;;;;;;;3.70;99.90;;;;;;5119665;27;19933;-86
2021/01/22 03:11:09;;;;;;;;;;;3.70;99.90;;;;;;5119951;27;19998;-85
2021/01/22 03:13:38;;;;;;;;;;;3.70;99.90;;;;;;5119787;27;19915;-86
2021/01/22 03:16:06;;;;;;;;;;;3.60;99.90;;;;;;5119461;27;19911;-86
2021/01/22 03:18:36;;;;;;;;;;;3.60;99.90;;;;;;5132277;27;20319;-85
2021/01/22 03:21:07;;;;;;;;;;;3.50;99.90;;;;;;5118905;27;19908;-86
2021/01/22 03:23:36;;;;;;;;;;;3.50;99.90;;;;;;5136965;27;20267;-86
2021/01/22 03:26:04;;;;;;;;;;;3.50;99.90;;;;;;5119026;27;19914;-86
2021/01/22 03:28:30;;;;;;;;;;;3.40;99.90;;;;;;5119469;27;19907;-86
2021/01/22 03:30:58;;;;;;;;;;;3.40;99.90;;;;;;5134571;27;19911;-86
2021/01/22 03:33:27;;;;;;;;;;;3.40;99.90;;;;;;5137489;27;20005;-86
2021/01/22 03:35:53;;;;;;;;;;;3.40;99.90;;;;;;5119012;27;19958;-86
2021/01/22 03:38:21;;;;;;;;;;;3.40;99.90;;;;;;5133221;27;19961;-87
2021/01/22 03:40:49;;;;;;;;;;;3.30;99.90;;;;;;5118271;27;19907;-86
2021/01/22 03:43:15;;;;;;;;;;;3.40;99.90;;;;;;5137213;27;19911;-86
2021/01/22 03:45:47;;;;;;;;;;;3.50;99.90;;;;;;5135798;27;19911;-86
2021/01/22 03:48:15;;;;;;;;;;;3.60;99.90;;;;;;5118300;27;19908;-86
2021/01/22 03:50:51;;;;;;;;;;;3.60;99.90;;;;;;5135680;27;19908;-86
2021/01/22 03:53:20;;;;;;;;;;;3.50;99.90;;;;;;5118766;27;19914;-86
2021/01/22 03:55:48;;;;;;;;;;;3.40;99.90;;;;;;5118622;27;19945;-86
2021/01/22 03:58:17;;;;;;;;;;;3.40;99.90;;;;;;5137703;27;19926;-86
2021/01/22 04:00:46;;;;;;;;;;;3.40;99.90;;;;;;5136831;27;19912;-85
2021/01/22 04:03:14;;;;;;;;;;;3.40;99.90;;;;;;5118368;27;19907;-86
2021/01/22 04:05:40;;;;;;;;;;;3.40;99.90;;;;;;5118488;27;19911;-85
2021/01/22 04:08:06;;;;;;;;;;;3.30;99.90;;;;;;5118385;27;19911;-86
2021/01/22 04:10:42;;;;;;;;;;;3.30;99.90;;;;;;5136176;27;20006;-86
2021/01/22 04:13:17;;;;;;;;;;;3.30;99.90;;;;;;5118319;27;20001;-86
2021/01/22 04:15:46;;;;;;;;;;;3.30;99.90;;;;;;5116105;27;19919;-86
2021/01/22 04:18:15;;;;;;;;;;;3.40;99.90;;;;;;5118495;27;19907;-86
2021/01/22 04:20:41;;;;;;;;;;;3.40;99.90;;;;;;5118047;27;20009;-86
2021/01/22 04:23:10;;;;;;;;;;;3.50;99.90;;;;;;5114918;27;20380;-87
2021/01/22 04:25:39;;;;;;;;;;;3.50;99.90;;;;;;5113053;27;19925;-86
2021/01/22 04:28:05;;;;;;;;;;;3.50;99.90;;;;;;5115331;27;19964;-86
2021/01/22 04:30:31;;;;;;;;;;;3.50;99.90;;;;;;5119091;27;19908;-86
2021/01/22 04:33:05;;;;;;;;;;;3.50;99.90;;;;;;5113692;27;20383;-87
2021/01/22 04:35:33;;;;;;;;;;;3.40;99.90;;;;;;5114230;27;19933;-86
2021/01/22 04:37:59;;;;;;;;;;;3.50;99.90;;;;;;5118198;27;20344;-87
2021/01/22 04:40:35;;;;;;;;;;;3.50;99.90;;;;;;5117953;27;19907;-87
2021/01/22 04:43:07;;;;;;;;;;;3.50;99.90;;;;;;5117759;27;19911;-86
2021/01/22 04:45:34;;;;;;;;;;;3.60;99.90;;;;;;5117646;27;19911;-87
2021/01/22 04:48:00;;;;;;;;;;;3.50;99.90;;;;;;5129797;27;19907;-87
2021/01/22 04:50:31;;;;;;;;;;;3.60;99.90;;;;;;5117813;27;19911;-87
2021/01/22 04:53:03;;;;;;;;;;;3.70;99.90;;;;;;5118493;27;20332;-86
2021/01/22 04:55:41;;;;;;;;;;;3.70;99.90;;;;;;5117703;27;19908;-87
2021/01/22 04:58:12;;;;;;;;;;;3.70;99.90;;;;;;5127163;27;19934;-87
2021/01/22 05:00:47;;;;;;;;;;;3.70;99.90;;;;;;5117526;27;19935;-86
2021/01/22 05:03:26;;;;;;;;;;;3.70;99.90;;;;;;5134302;27;19907;-87
2021/01/22 05:06:01;;;;;;;;;;;3.70;99.90;;;;;;5135909;27;19911;-87
2021/01/22 05:08:30;;;;;;;;;;;3.80;99.90;;;;;;5117466;27;19942;-87
2021/01/22 05:11:03;;;;;;;;;;;3.80;99.90;;;;;;5117634;27;19911;-87
2021/01/22 05:13:35;;;;;;;;;;;3.70;99.90;;;;;;5117252;27;19907;-86
2021/01/22 05:16:08;;;;;;;;;;;3.70;99.90;;;;;;5118529;27;19938;-87
2021/01/22 05:18:47;;;;;;;;;;;3.70;99.90;;;;;;5136502;27;19930;-87
2021/01/22 05:21:18;;;;;;;;;;;3.80;99.90;;;;;;5114142;27;19912;-87
2021/01/22 05:23:49;;;;;;;;;;;3.80;99.90;;;;;;5135258;28;19912;-87
2021/01/22 05:26:21;;;;;;;;;;;3.80;99.90;;;;;;5117890;28;20372;-87
2021/01/22 05:28:59;;;;;;;;;;;3.90;99.90;;;;;;5134233;28;19915;-87
2021/01/22 05:31:35;;;;;;;;;;;3.90;99.90;;;;;;5117514;28;19922;-87
2021/01/22 05:34:03;;;;;;;;;;;3.90;99.90;;;;;;5114569;28;20268;-87
2021/01/22 05:36:33;;;;;;;;;;;3.90;99.90;;;;;;5117103;28;19951;-86
2021/01/22 05:39:20;;;;;;;;;;;3.90;99.90;;;;;;5117530;28;19915;-87
2021/01/22 05:42:01;;;;;;;;;;;3.80;99.90;;;;;;5117316;28;19912;-87
2021/01/22 05:44:37;;;;;;;;;;;3.80;99.90;;;;;;5117060;28;19919;-87
2021/01/22 05:47:06;;;;;;;;;;;3.80;99.90;;;;;;5116580;28;19912;-87
2021/01/22 05:49:55;;;;;;;;;;;3.90;99.90;;;;;;5134262;28;19994;-87
2021/01/22 05:52:27;;;;;;;;;;;3.90;99.90;;;;;;5132258;28;19957;-87
2021/01/22 05:54:52;;;;;;;;;;;3.90;99.90;;;;;;5134296;28;19908;-86
2021/01/22 05:57:21;;;;;;;;;;;4.00;99.90;;;;;;5116341;28;20014;-86
2021/01/22 06:00:10;;;;;;;;;;;4.00;99.90;;;;;;5116971;28;19908;-86
2021/01/22 06:02:38;;;;;;;;;;;4.00;99.90;;;;;;5116916;28;19914;-86
2021/01/22 06:05:22;;;;;;;;;;;4.00;99.90;;;;;;5116741;28;19950;-86
2021/01/22 06:08:03;;;;;;;;;;;4.00;99.90;;;;;;5116449;28;19915;-86
2021/01/22 06:10:37;;;;;;;;;;;4.10;99.90;;;;;;5117582;28;20021;-86
2021/01/22 06:13:12;;;;;;;;;;;4.10;99.90;;;;;;5117036;28;19914;-86
2021/01/22 06:15:58;;;;;;;;;;;4.10;99.90;;;;;;5118387;27;20010;-86
2021/01/22 06:18:31;;;;;;;;;;;4.10;99.90;;;;;;5137385;27;19928;-86
2021/01/22 06:21:06;;;;;;;;;;;4.10;99.90;;;;;;5137645;27;20313;-87
2021/01/22 06:23:32;;;;;;;;;;;4.10;99.90;;;;;;5137425;27;19911;-87
2021/01/22 06:25:59;;;;;;;;;;;4.00;99.90;;;;;;5136886;27;19994;-88
2021/01/22 06:28:25;;;;;;;;;;;4.00;99.90;;;;;;5137256;27;19911;-87
2021/01/22 06:31:03;;;;;;;;;;;4.10;99.90;;;;;;5154682;27;19911;-87
2021/01/22 06:33:29;;;;;;;;;;;4.10;99.90;;;;;;5143688;27;19907;-86
2021/01/22 06:35:57;;;;;;;;;;;4.10;99.90;;;;;;5131083;27;19968;-87
2021/01/22 06:38:25;;;;;;;;;;;4.10;99.90;;;;;;5126608;27;19914;-86
2021/01/22 06:40:59;;;;;;;;;;;4.10;99.90;;;;;;5158578;27;20362;-86
2021/01/22 06:43:36;;;;;;;;;;;4.10;99.90;;;;;;5140257;27;19915;-88
2021/01/22 06:46:11;;;;;;;;;;;4.10;99.90;;;;;;5138841;27;20586;-88
2021/01/22 06:48:55;;;;;;;;;;;4.00;99.90;;;;;;5141692;27;19907;-88
2021/01/22 06:51:30;;;;;;;;;;;4.00;99.90;;;;;;5141217;27;19938;-88
2021/01/22 06:54:05;;;;;;;;;;;4.00;99.90;;;;;;5141384;27;19915;-87
2021/01/22 06:56:35;;;;;;;;;;;3.90;99.90;;;;;;5141718;27;19907;-88
2021/01/22 06:59:24;;;;;;;;;;;3.80;99.90;;;;;;5138858;27;19927;-89
2021/01/22 07:01:59;;;;;;;;;;;3.80;99.90;;;;;;5141867;27;19912;-88
2021/01/22 07:04:31;;;;;;;;;;;3.70;99.90;;;;;;5141855;27;20448;-88
2021/01/22 07:07:03;;;;;;;;;;;3.70;99.90;;;;;;5142174;27;19954;-88
2021/01/22 07:09:45;;;;;;;;;;;3.60;99.90;;;;;;5141525;27;19994;-88
2021/01/22 07:12:20;;;;;;;;;;;3.60;99.90;;;;;;5141691;27;20348;-89
2021/01/22 07:14:51;;;;;;;;;;;3.50;99.90;;;;;;5141034;27;19922;-89
2021/01/22 07:17:33;;;;;;;;;;;3.50;99.90;;;;;;5140778;27;19913;-89
2021/01/22 07:20:01;;;;;;;;;;;3.60;99.90;;;;;;5140747;27;19907;-89
2021/01/22 07:22:28;;;;;;;;;;;3.60;99.90;;;;;;5133117;27;20313;-89
2021/01/22 07:25:00;;;;;;;;;;;3.70;99.90;;;;;;5119992;27;19916;-88
2021/01/22 07:27:48;;;;;;;;;;;3.70;99.90;;;;;;5119502;27;19907;-88
2021/01/22 07:30:21;;;;;;;;;;;3.70;99.90;;;;;;5119818;27;19951;-89
2021/01/22 07:32:51;;;;;;;;;;;3.70;99.90;;;;;;5119168;27;19951;-88
2021/01/22 07:35:30;;;;;;;;;;;3.70;99.90;;;;;;5124165;27;19908;-86
2021/01/22 07:37:56;;;;;;;;;;;3.60;99.90;;;;;;5137612;27;20410;-88
2021/01/22 07:40:22;;;;;;;;;;;3.60;99.90;;;;;;5132774;27;20359;-88
2021/01/22 07:42:56;;;;;;;;;;;3.50;99.90;;;;;;5141610;27;19952;-88
2021/01/22 07:45:37;;;;;;;;;;;;;;;;;;;;;
2021/01/22 07:48:09;;;;;;;;;;;3.50;99.90;;;;;;5158192;27;20286;-88
2021/01/22 07:50:35;;;;;;;;;;;3.50;99.90;;;;;;5139875;27;20088;-87
2021/01/22 07:53:06;;;;;;;;;;;3.50;99.90;;;;;;5140528;27;20001;-89
2021/01/22 07:55:37;;;;;;;;;;;3.50;99.90;;;;;;5140902;27;20256;-89
2021/01/22 07:58:24;;;;;;;;;;;3.50;99.90;;;;;;5158642;27;20271;-89
2021/01/22 08:01:07;;;;;;;;;;;3.50;99.90;;;;;;5156452;27;19913;-90
2021/01/22 08:03:52;;;;;;;;;;;3.60;99.90;;;;;;5140061;27;20256;-88
2021/01/22 08:06:21;;;;;;;;;;;3.60;99.90;;;;;;5139621;27;20420;-89
2021/01/22 08:09:11;;;;;;;;;;;3.70;99.90;;;;;;5139464;27;19908;-89
2021/01/22 08:11:43;;;;;;;;;;;3.70;99.90;;;;;;5140133;27;20005;-89
2021/01/22 08:14:19;;;;;;;;;;;3.80;99.90;;;;;;5139613;27;19911;-90
2021/01/22 08:16:48;;;;;;;;;;;3.80;99.90;;;;;;5139562;27;19994;-88
2021/01/22 08:19:22;;;;;;;;;;;3.80;99.90;;;;;;5138982;27;20377;-88
2021/01/22 08:21:55;;;;;;;;;;;3.90;99.90;;;;;;5138884;27;20002;-89
2021/01/22 08:24:31;;;;;;;;;;;3.90;99.90;;;;;;5139451;27;19915;-89
2021/01/22 08:27:06;;;;;;;;;;;3.90;99.90;;;;;;5139669;27;19974;-89
2021/01/22 08:29:33;;;;;;;;;;;3.90;99.90;;;;;;5159191;27;19918;-88
2021/01/22 08:31:59;;;;;;;;;;;3.90;99.90;;;;;;5178911;27;19907;-88
2021/01/22 08:34:29;;;;;;;;;;;3.90;99.90;;;;;;5178393;27;19911;-88
2021/01/22 08:36:58;;;;;;;;;;;3.90;99.90;;;;;;5156529;27;19906;-89
2021/01/22 08:39:26;;;;;;;;;;;3.90;99.90;;;;;;5163115;27;19907;-87
2021/01/22 08:41:52;;;;;;;;;;;4.00;99.90;;;;;;5161711;27;19914;-86
2021/01/22 08:44:20;;;;;;;;;;;4.00;99.90;;;;;;5160219;27;19911;-86
2021/01/22 08:46:46;;;;;;;;;;;4.00;99.90;;;;;;5161289;27;20374;-86
2021/01/22 08:49:14;;;;;;;;;;;4.10;99.90;;;;;;5176936;27;19917;-86
2021/01/22 08:51:46;;;;;;;;;;;4.10;99.90;;;;;;5178894;27;19907;-87
2021/01/22 08:54:17;;;;;;;;;;;4.10;99.90;;;;;;5157165;27;19910;-86
2021/01/22 08:56:43;;;;;;;;;;;4.10;99.90;;;;;;5143629;27;19948;-86
2021/01/22 08:59:14;;;;;;;;;;;4.10;99.90;;;;;;5144294;27;19912;-86
2021/01/22 09:01:58;;;;;;;;;;;4.20;99.90;;;;;;5143857;27;19911;-86
2021/01/22 09:04:28;;;;;;;;;;;4.20;99.90;;;;;;5129623;27;19915;-86
2021/01/22 09:07:01;;;;;;;;;;;4.30;99.90;;;;;;5135818;27;19915;-86
2021/01/22 09:09:49;;;;;;;;;;;4.30;99.90;;;;;;5121331;27;19908;-86
2021/01/22 09:12:31;;;;;;;;;;;4.30;99.90;;;;;;5145895;27;20419;-88
2021/01/22 09:15:02;;;;;;;;;;;4.30;99.90;;;;;;5138099;27;20389;-87
2021/01/22 09:17:53;;;;;;;;;;;4.40;99.90;;;;;;5138482;27;19907;-87
2021/01/22 09:20:26;;;;;;;;;;;4.40;99.90;;;;;;5138361;27;19914;-86
2021/01/22 09:22:55;;;;;;;;;;;4.50;99.90;;;;;;5138190;27;19914;-88
2021/01/22 09:25:26;;;;;;;;;;;4.50;99.90;;;;;;5138274;27;19915;-88
2021/01/22 09:27:52;;;;;;;;;;;4.50;99.90;;;;;;5138572;27;20268;-88
2021/01/22 09:30:22;;;;;;;;;;;4.60;99.90;;;;;;5138244;27;19911;-88
2021/01/22 09:32:54;;;;;;;;;;;4.60;99.90;;;;;;5153083;27;19914;-89
2021/01/22 09:35:34;;;;;;;;;;;4.70;99.90;;;;;;5117461;28;19915;-86
2021/01/22 09:38:04;;;;;;;;;;;4.70;99.90;;;;;;5116761;28;19911;-86
2021/01/22 09:40:35;;;;;;;;;;;4.80;99.90;;;;;;5111873;28;19907;-86
2021/01/22 09:43:04;;;;;;;;;;;4.80;99.90;;;;;;5117155;28;19915;-86
2021/01/22 09:45:37;;;;;;;;;;;4.70;99.90;;;;;;5137730;27;19919;-89
2021/01/22 09:48:06;;;;;;;;;;;4.70;99.90;;;;;;5138285;27;20394;-88
2021/01/22 09:50:32;;;;;;;;;;;4.80;99.90;;;;;;5156867;27;19908;-89
2021/01/22 09:53:00;;;;;;;;;;;4.80;99.90;;;;;;5156692;27;19951;-88
2021/01/22 09:55:27;;;;;;;;;;;4.80;99.90;;;;;;5138279;27;20002;-88
2021/01/22 09:57:58;;;;;;;;;;;4.80;99.90;;;;;;5137743;27;19963;-88
2021/01/22 10:00:27;;;;;;;;;;;4.80;99.90;;;;;;5133195;27;20280;-88
2021/01/22 10:03:04;;;;;;;;;;;5.10;99.90;;;;;;5131233;28;20040;-87
2021/01/22 10:05:46;;;;;;;;;;;5.40;99.90;;;;;;5134656;27;19915;-88
2021/01/22 10:08:20;;;;;;;;;;;5.50;99.90;;;;;;5122549;27;19931;-87
2021/01/22 10:10:57;;;;;;;;;;;5.50;99.90;;;;;;5139125;27;19960;-88
2021/01/22 10:13:26;;;;;;;;;;;5.80;99.90;;;;;;5138868;27;19908;-88
2021/01/22 10:16:01;;;;;;;;;;;6.00;99.90;;;;;;5120429;27;19907;-88
2021/01/22 10:18:37;;;;;;;;;;;6.20;99.90;;;;;;5121524;27;20002;-88
2021/01/22 10:21:08;;;;;;;;;;;6.20;99.90;;;;;;5119366;27;20261;-88
2021/01/22 10:23:37;;;;;;;;;;;6.40;99.90;;;;;;5120804;27;20423;-88
2021/01/22 10:26:29;;;;;;;;;;;7.20;99.90;;;;;;5138323;27;19916;-88
2021/01/22 10:29:01;;;;;;;;;;;8.30;99.90;;;;;;5122118;27;19929;-87
2021/01/22 10:31:36;;;;;;;;;;;8.80;99.90;;;;;;5139460;27;19964;-89
2021/01/22 10:34:07;;;;;;;;;;;8.70;99.90;;;;;;5121812;27;19914;-89
2021/01/22 10:36:35;;;;;;;;;;;8.60;99.90;;;;;;5121572;27;19957;-90
2021/01/22 10:39:09;;;;;;;;;;;8.80;99.90;;;;;;5121742;27;19911;-90
2021/01/22 10:41:36;;;;;;;;;;;9.10;99.90;;;;;;5120915;27;19964;-89
2021/01/22 10:44:07;;;;;;;;;;;8.80;99.90;;;;;;5124243;27;19949;-88
2021/01/22 10:46:34;;;;;;;;;;;8.80;99.90;;;;;;5161618;27;19911;-88
2021/01/22 10:49:02;;;;;;;;;;;8.50;99.90;;;;;;5162434;27;19914;-88
2021/01/22 10:51:34;;;;;;;;;;;8.30;99.90;;;;;;5157364;27;19918;-88
2021/01/22 10:54:03;;;;;;;;;;;8.10;99.90;;;;;;5161672;27;19907;-88
2021/01/22 10:56:36;;;;;;;;;;;8.00;99.90;;;;;;5135870;27;19907;-88
2021/01/22 10:59:11;;;;;;;;;;;7.90;99.90;;;;;;5133494;27;20014;-89
2021/01/22 11:01:53;;;;;;;;;;;8.00;99.90;;;;;;5136456;27;19914;-89
2021/01/22 11:04:21;;;;;;;;;;;8.00;99.90;;;;;;5119778;27;19919;-88
2021/01/22 11:06:59;;;;;;;;;;;8.00;99.90;;;;;;5136445;27;19907;-89
2021/01/22 11:09:25;;;;;;;;;;;7.80;99.90;;;;;;5134688;27;19922;-89
2021/01/22 11:11:56;;;;;;;;;;;7.70;99.90;;;;;;5116073;27;19990;-89
2021/01/22 11:14:24;;;;;;;;;;;7.60;99.90;;;;;;5117858;27;19997;-88
2021/01/22 11:16:53;;;;;;;;;;;7.50;99.90;;;;;;5078079;28;19943;-87
2021/01/22 11:19:31;;;;;;;;;;;7.30;99.90;;;;;;5120596;27;19917;-87
2021/01/22 11:21:59;;;;;;;;;;;7.60;99.90;;;;;;5099564;28;20368;-87
2021/01/22 11:24:27;;;;;;;;;;;7.60;99.90;;;;;;5123430;27;19919;-86
2021/01/22 11:26:59;;;;;;;;;;;7.60;99.90;;;;;;5101702;27;19923;-87
2021/01/22 11:29:27;;;;;;;;;;;7.60;99.90;;;;;;5123550;27;19916;-86
2021/01/22 11:31:53;;;;;;;;;;;7.70;99.90;;;;;;5104330;27;19987;-86
2021/01/22 11:34:25;;;;;;;;;;;8.10;99.90;;;;;;5121724;27;19949;-87
2021/01/22 11:37:18;;;;;;;;;;;8.40;99.90;;;;;;5135387;27;19911;-87
2021/01/22 11:39:46;;;;;;;;;;;8.80;99.90;;;;;;5130034;27;19915;-87
2021/01/22 11:42:14;;;;;;;;;;;9.30;99.90;;;;;;5119334;27;20341;-87
2021/01/22 11:44:40;;;;;;;;;;;9.40;99.90;;;;;;5092518;28;19916;-86
2021/01/22 11:47:11;;;;;;;;;;;9.60;99.90;;;;;;5152860;27;19911;-88
2021/01/22 11:49:37;;;;;;;;;;;9.90;99.90;;;;;;5157784;27;19907;-87
2021/01/22 11:52:11;;;;;;;;;;;10.50;99.90;;;;;;5158010;27;19914;-88
2021/01/22 11:54:40;;;;;;;;;;;10.60;99.90;;;;;;5139755;27;20378;-88
2021/01/22 11:57:13;;;;;;;;;;;10.40;99.90;;;;;;5139953;27;20005;-88
2021/01/22 11:59:42;;;;;;;;;;;9.90;99.90;;;;;;5139768;27;19907;-89
2021/01/22 12:02:08;;;;;;;;;;;9.30;99.90;;;;;;5128994;27;19911;-88
2021/01/22 12:04:36;;;;;;;;;;;9.00;99.90;;;;;;5118674;27;20003;-87
2021/01/22 12:07:09;;;;;;;;;;;9.10;99.90;;;;;;5118417;27;19908;-88
2021/01/22 12:09:38;;;;;;;;;;;9.10;99.90;;;;;;5137254;27;19911;-89
2021/01/22 12:12:14;;;;;;;;;;;9.00;99.90;;;;;;5057141;28;19935;-85
2021/01/22 12:14:43;;;;;;;;;;;8.80;99.90;;;;;;5063709;28;19916;-88
2021/01/22 12:17:08;;;;;;;;;;;8.60;99.90;;;;;;5051697;28;19912;-86
2021/01/22 12:19:37;;;;;;;;;;;8.60;99.90;;;;;;5073093;28;19915;-86
2021/01/22 12:22:15;;;;;;;;;;;8.40;99.90;;;;;;5056126;28;20367;-85
2021/01/22 12:24:47;;;;;;;;;;;8.20;99.90;;;;;;5062885;28;20015;-86
2021/01/22 12:27:20;;;;;;;;;;;8.00;99.90;;;;;;5077239;28;19912;-87
2021/01/22 12:29:46;;;;;;;;;;;7.80;99.90;;;;;;5075734;28;19908;-85
2021/01/22 12:32:17;;;;;;;;;;;7.70;99.90;;;;;;5076284;28;20003;-86
2021/01/22 12:34:57;;;;;;;;;;;7.60;99.90;;;;;;5060868;28;19962;-87
2021/01/22 12:37:34;;;;;;;;;;;;;;;;;;;;;
2021/01/22 12:40:03;;;;;;;;;;;7.60;99.90;;;;;;5081142;28;19923;-89
2021/01/22 12:42:38;;;;;;;;;;;7.50;99.90;;;;;;5068635;28;19915;-89
2021/01/22 12:45:10;;;;;;;;;;;7.40;99.90;;;;;;5057678;28;19916;-89
2021/01/22 12:47:42;;;;;;;;;;;7.40;99.90;;;;;;5066625;28;19912;-89
2021/01/22 12:50:11;;;;;;;;;;;7.40;99.90;;;;;;5125648;27;19914;-91
2021/01/22 12:52:58;;;;;;;;;;;7.40;99.90;;;;;;5094271;28;20472;-89
2021/01/22 12:55:32;;;;;;;;;;;7.40;99.90;;;;;;5076723;28;20363;-89
2021/01/22 12:58:15;;;;;;;;;;;7.50;99.90;;;;;;5088615;28;19924;-90
2021/01/22 13:00:41;;;;;;;;;;;7.80;99.90;;;;;;5096476;28;19946;-92
2021/01/22 13:03:20;;;;;;;;;;;8.00;99.90;;;;;;5072959;28;19945;-90
2021/01/22 13:05:52;;;;;;;;;;;8.30;99.90;;;;;;5056514;28;19954;-90
2021/01/22 13:08:38;;;;;;;;;;;8.70;99.90;;;;;;5072669;28;19936;-89
2021/01/22 13:11:16;;;;;;;;;;;9.20;99.90;;;;;;5050098;28;19998;-88
2021/01/22 13:13:47;;;;;;;;;;;9.70;99.90;;;;;;5055546;28;19912;-89
2021/01/22 13:16:20;;;;;;;;;;;10.10;99.30;;;;;;5071877;28;19913;-89
2021/01/22 13:18:55;;;;;;;;;;;10.70;96.00;;;;;;5056599;28;19912;-89
2021/01/22 13:21:26;;;;;;;;;;;10.90;94.90;;;;;;5056287;28;19995;-89
2021/01/22 13:23:54;;;;;;;;;;;11.00;93.40;;;;;;5076897;28;20006;-89
2021/01/22 13:26:26;;;;;;;;;;;10.90;93.50;;;;;;5113351;28;20380;-89
2021/01/22 13:28:58;;;;;;;;;;;11.10;92.20;;;;;;5093746;28;19912;-88
2021/01/22 13:31:37;;;;;;;;;;;11.00;90.20;;;;;;5114600;28;20364;-90
2021/01/22 13:34:12;;;;;;;;;;;10.40;89.30;;;;;;5134629;27;19930;-89
2021/01/22 13:36:49;;;;;;;;;;;9.70;91.00;;;;;;5139653;27;19952;-90
2021/01/22 13:39:20;;;;;;;;;;;9.00;92.70;;;;;;5157039;27;20001;-90
2021/01/22 13:41:49;;;;;;;;;;;8.80;95.20;;;;;;5157295;27;20002;-89
2021/01/22 13:44:34;;;;;;;;;;;8.70;96.80;;;;;;5158876;27;20370;-90
2021/01/22 13:47:03;;;;;;;;;;;8.50;97.30;;;;;;5160300;27;19915;-90
2021/01/22 13:49:36;;;;;;;;;;;8.30;98.10;;;;;;5142450;27;19907;-89
2021/01/22 13:52:04;;;;;;;;;;;8.10;99.90;;;;;;5158632;27;19911;-90
2021/01/22 13:54:30;;;;;;;;;;;8.00;99.90;;;;;;5152101;27;19929;-87
2021/01/22 13:57:06;;;;;;;;;;;8.10;99.90;;;;;;5164700;27;19911;-90
2021/01/22 13:59:37;;;;;;;;;;;8.30;99.90;;;;;;5162290;27;19907;-89
2021/01/22 14:02:13;;;;;;;;;;;8.50;99.70;;;;;;5158423;27;19908;-89
2021/01/22 14:04:58;;;;;;;;;;;8.30;98.90;;;;;;5138213;27;20379;-90
2021/01/22 14:07:42;;;;;;;;;;;8.20;99.10;;;;;;5160081;27;19919;-90
2021/01/22 14:10:19;;;;;;;;;;;8.10;99.90;;;;;;5142401;27;19907;-90
2021/01/22 14:12:46;;;;;;;;;;;8.00;99.90;;;;;;5140305;27;19907;-90
2021/01/22 14:15:12;;;;;;;;;;;7.80;99.90;;;;;;5157429;27;19917;-88
2021/01/22 14:17:44;;;;;;;;;;;7.70;99.90;;;;;;5135659;27;19910;-90
2021/01/22 14:20:15;;;;;;;;;;;7.60;99.90;;;;;;5136630;27;19907;-88
2021/01/22 14:22:43;;;;;;;;;;;7.40;99.90;;;;;;5142265;27;19907;-88
2021/01/22 14:25:11;;;;;;;;;;;7.40;99.90;;;;;;5136371;27;19922;-89
2021/01/22 14:27:37;;;;;;;;;;;7.40;99.90;;;;;;5140944;27;19960;-90
2021/01/22 14:30:03;;;;;;;;;;;7.50;99.90;;;;;;5156831;27;19915;-89
2021/01/22 14:32:35;;;;;;;;;;;7.50;99.90;;;;;;5141124;27;19930;-89
2021/01/22 14:35:09;;;;;;;;;;;7.40;99.90;;;;;;5142357;27;20347;-90
2021/01/22 14:37:36;;;;;;;;;;;7.30;99.90;;;;;;5159973;27;19911;-89
2021/01/22 14:40:12;;;;;;;;;;;7.20;99.90;;;;;;5138095;27;19911;-90
2021/01/22 14:42:53;;;;;;;;;;;7.10;99.90;;;;;;5141166;27;19908;-89
2021/01/22 14:45:33;;;;;;;;;;;7.00;99.90;;;;;;5124706;27;19919;-90
2021/01/22 14:48:00;;;;;;;;;;;6.90;99.90;;;;;;5142232;27;19908;-88
2021/01/22 14:50:29;;;;;;;;;;;6.80;99.90;;;;;;5138640;27;19956;-89
2021/01/22 14:52:54;;;;;;;;;;;6.80;99.90;;;;;;5159464;27;19907;-88
2021/01/22 14:55:23;;;;;;;;;;;6.70;99.90;;;;;;5134694;27;20374;-89
2021/01/22 14:57:54;;;;;;;;;;;6.70;99.90;;;;;;5163959;27;19919;-89
2021/01/22 15:00:29;;;;;;;;;;;6.70;99.90;;;;;;5179780;27;20466;-90